sensor_id;sensor_type;location;lat;lon;timestamp;temperature;humidity
32664;DHT22;19847;48.670;9.242;2022-09-27T00:00:58;10.00;99.90
32664;DHT22;19847;48.670;9.242;2022-09-27T00:04:21;9.90;99.90
32664;DHT22;19847;48.670;9.242;2022-09-27T00:07:43;9.90;99.90
32664;DHT22;19847;48.670;9.242;2022-09-27T00:11:05;9.90;99.90
32664;DHT22;19847;48.670;9.242;2022-09-27T00:14:27;10.00;99.90
32664;DHT22;19847;48.670;9.242;2022-09-27T00:17:49;10.00;99.90
32664;DHT22;19847;48.670;9.242;2022-09-27T00:21:12;10.00;99.90
32664;DHT22;19847;48.670;9.242;2022-09-27T00:24:34;9.90;99.90
32664;DHT22;19847;48.670;9.242;2022-09-27T00:27:55;10.00;99.90
32664;DHT22;19847;48.670;9.242;2022-09-27T00:31:18;10.00;99.90
32664;DHT22;19847;48.670;9.242;2022-09-27T00:34:40;10.00;99.90
32664;DHT22;19847;48.670;9.242;2022-09-27T00:38:03;10.00;99.90
32664;DHT22;19847;48.670;9.242;2022-09-27T00:41:26;10.00;99.90
32664;DHT22;19847;48.670;9.242;2022-09-27T00:45:04;9.90;99.90
32664;DHT22;19847;48.670;9.242;2022-09-27T00:48:27;9.90;99.90
32664;DHT22;19847;48.670;9.242;2022-09-27T00:51:50;10.00;99.90
32664;DHT22;19847;48.670;9.242;2022-09-27T00:55:15;10.00;99.90
32664;DHT22;19847;48.670;9.242;2022-09-27T00:58:38;9.90;99.90
32664;DHT22;19847;48.670;9.242;2022-09-27T01:02:02;9.90;99.90
32664;DHT22;19847;48.670;9.242;2022-09-27T01:05:26;9.90;99.90
32664;DHT22;19847;48.670;9.242;2022-09-27T01:08:48;9.90;99.90
32664;DHT22;19847;48.670;9.242;2022-09-27T01:12:13;9.90;99.90
32664;DHT22;19847;48.670;9.242;2022-09-27T01:15:42;9.90;99.90
32664;DHT22;19847;48.670;9.242;2022-09-27T01:19:08;9.90;99.90
32664;DHT22;19847;48.670;9.242;2022-09-27T01:22:31;9.90;99.90
32664;DHT22;19847;48.670;9.242;2022-09-27T01:25:57;9.90;99.90
32664;DHT22;19847;48.670;9.242;2022-09-27T01:29:24;9.90;99.90
32664;DHT22;19847;48.670;9.242;2022-09-27T01:32:51;10.00;99.90
32664;DHT22;19847;48.670;9.242;2022-09-27T01:36:23;10.10;99.90
32664;DHT22;19847;48.670;9.242;2022-09-27T01:39:48;10.00;99.90
32664;DHT22;19847;48.670;9.242;2022-09-27T01:43:11;10.00;99.90
32664;DHT22;19847;48.670;9.242;2022-09-27T01:46:35;10.00;99.90
32664;DHT22;19847;48.670;9.242;2022-09-27T01:50:00;10.00;99.90
32664;DHT22;19847;48.670;9.242;2022-09-27T01:53:24;10.10;99.90
32664;DHT22;19847;48.670;9.242;2022-09-27T01:56:46;10.10;99.90
32664;DHT22;19847;48.670;9.242;2022-09-27T02:00:09;10.10;99.90
32664;DHT22;19847;48.670;9.242;2022-09-27T02:03:32;10.10;99.90
32664;DHT22;19847;48.670;9.242;2022-09-27T02:06:57;10.10;99.90
32664;DHT22;19847;48.670;9.242;2022-09-27T02:10:21;10.10;99.90
32664;DHT22;19847;48.670;9.242;2022-09-27T02:13:44;10.10;99.90
32664;DHT22;19847;48.670;9.242;2022-09-27T02:17:10;10.10;99.90
32664;DHT22;19847;48.670;9.242;2022-09-27T02:20:37;10.10;99.90
32664;DHT22;19847;48.670;9.242;2022-09-27T02:24:00;10.10;99.90
32664;DHT22;19847;48.670;9.242;2022-09-27T02:27:23;10.10;99.90
32664;DHT22;19847;48.670;9.242;2022-09-27T02:30:47;10.10;99.90
32664;DHT22;19847;48.670;9.242;2022-09-27T02:34:10;10.10;99.90
32664;DHT22;19847;48.670;9.242;2022-09-27T02:37:34;10.00;99.90
32664;DHT22;19847;48.670;9.242;2022-09-27T02:40:57;10.00;99.90
32664;DHT22;19847;48.670;9.242;2022-09-27T02:44:18;9.90;99.90
32664;DHT22;19847;48.670;9.242;2022-09-27T02:47:48;9.90;99.90
32664;DHT22;19847;48.670;9.242;2022-09-27T02:51:17;9.90;99.90
32664;DHT22;19847;48.670;9.242;2022-09-27T02:54:43;9.90;99.90
32664;DHT22;19847;48.670;9.242;2022-09-27T02:58:08;9.90;99.90
32664;DHT22;19847;48.670;9.242;2022-09-27T03:01:35;9.90;99.90
32664;DHT22;19847;48.670;9.242;2022-09-27T03:04:59;9.90;99.90
32664;DHT22;19847;48.670;9.242;2022-09-27T03:08:21;9.80;99.90
32664;DHT22;19847;48.670;9.242;2022-09-27T03:11:43;9.70;99.90
32664;DHT22;19847;48.670;9.242;2022-09-27T03:15:06;9.60;99.90
32664;DHT22;19847;48.670;9.242;2022-09-27T03:18:28;9.50;99.90
32664;DHT22;19847;48.670;9.242;2022-09-27T03:21:50;9.50;99.90
32664;DHT22;19847;48.670;9.242;2022-09-27T03:25:12;9.50;99.90
32664;DHT22;19847;48.670;9.242;2022-09-27T03:28:33;9.50;99.90
32664;DHT22;19847;48.670;9.242;2022-09-27T03:31:57;9.50;99.90
32664;DHT22;19847;48.670;9.242;2022-09-27T03:35:18;9.40;99.90
32664;DHT22;19847;48.670;9.242;2022-09-27T03:38:40;9.40;99.90
32664;DHT22;19847;48.670;9.242;2022-09-27T03:42:01;9.40;99.90
32664;DHT22;19847;48.670;9.242;2022-09-27T03:45:23;9.50;99.90
32664;DHT22;19847;48.670;9.242;2022-09-27T03:48:46;9.50;99.90
32664;DHT22;19847;48.670;9.242;2022-09-27T03:52:07;9.50;99.90
32664;DHT22;19847;48.670;9.242;2022-09-27T03:55:29;9.50;99.90
32664;DHT22;19847;48.670;9.242;2022-09-27T03:58:51;9.50;99.90
32664;DHT22;19847;48.670;9.242;2022-09-27T04:02:12;9.50;99.90
32664;DHT22;19847;48.670;9.242;2022-09-27T04:05:35;9.50;99.90
32664;DHT22;19847;48.670;9.242;2022-09-27T04:08:57;9.50;99.90
32664;DHT22;19847;48.670;9.242;2022-09-27T04:12:18;9.50;99.90
32664;DHT22;19847;48.670;9.242;2022-09-27T04:15:41;9.60;99.90
32664;DHT22;19847;48.670;9.242;2022-09-27T04:19:02;9.60;99.90
32664;DHT22;19847;48.670;9.242;2022-09-27T04:22:25;9.60;99.90
32664;DHT22;19847;48.670;9.242;2022-09-27T04:25:47;9.60;99.90
32664;DHT22;19847;48.670;9.242;2022-09-27T04:29:09;9.60;99.90
32664;DHT22;19847;48.670;9.242;2022-09-27T04:32:30;9.60;99.90
32664;DHT22;19847;48.670;9.242;2022-09-27T04:35:52;9.60;99.90
32664;DHT22;19847;48.670;9.242;2022-09-27T04:39:15;9.50;99.90
32664;DHT22;19847;48.670;9.242;2022-09-27T04:42:37;9.50;99.90
32664;DHT22;19847;48.670;9.242;2022-09-27T04:45:58;9.60;99.90
32664;DHT22;19847;48.670;9.242;2022-09-27T04:49:20;9.60;99.90
32664;DHT22;19847;48.670;9.242;2022-09-27T04:52:42;9.60;99.90
32664;DHT22;19847;48.670;9.242;2022-09-27T04:56:05;9.50;99.90
32664;DHT22;19847;48.670;9.242;2022-09-27T04:59:26;9.50;99.90
32664;DHT22;19847;48.670;9.242;2022-09-27T05:02:48;9.50;99.90
32664;DHT22;19847;48.670;9.242;2022-09-27T05:06:10;9.40;99.90
32664;DHT22;19847;48.670;9.242;2022-09-27T05:09:31;9.40;99.90
32664;DHT22;19847;48.670;9.242;2022-09-27T05:12:54;9.40;99.90
32664;DHT22;19847;48.670;9.242;2022-09-27T05:16:16;9.40;99.90
32664;DHT22;19847;48.670;9.242;2022-09-27T05:19:37;9.40;99.90
32664;DHT22;19847;48.670;9.242;2022-09-27T05:22:59;9.40;99.90
32664;DHT22;19847;48.670;9.242;2022-09-27T05:26:21;9.40;99.90
32664;DHT22;19847;48.670;9.242;2022-09-27T05:29:44;9.40;99.90
32664;DHT22;19847;48.670;9.242;2022-09-27T05:33:05;9.40;99.90
32664;DHT22;19847;48.670;9.242;2022-09-27T05:36:27;9.40;99.90
32664;DHT22;19847;48.670;9.242;2022-09-27T05:39:48;9.30;99.90
32664;DHT22;19847;48.670;9.242;2022-09-27T05:43:10;9.40;99.90
32664;DHT22;19847;48.670;9.242;2022-09-27T05:46:33;9.30;99.90
32664;DHT22;19847;48.670;9.242;2022-09-27T05:49:55;9.40;99.90
32664;DHT22;19847;48.670;9.242;2022-09-27T05:53:16;9.30;99.90
32664;DHT22;19847;48.670;9.242;2022-09-27T05:56:38;9.30;99.90
32664;DHT22;19847;48.670;9.242;2022-09-27T05:59:59;9.40;99.90
32664;DHT22;19847;48.670;9.242;2022-09-27T06:03:22;9.30;99.90
32664;DHT22;19847;48.670;9.242;2022-09-27T06:06:44;9.30;99.90
32664;DHT22;19847;48.670;9.242;2022-09-27T06:10:06;9.30;99.90
32664;DHT22;19847;48.670;9.242;2022-09-27T06:13:28;9.30;99.90
32664;DHT22;19847;48.670;9.242;2022-09-27T06:16:50;9.40;99.90
32664;DHT22;19847;48.670;9.242;2022-09-27T06:20:13;9.40;99.90
32664;DHT22;19847;48.670;9.242;2022-09-27T06:23:35;9.40;99.90
32664;DHT22;19847;48.670;9.242;2022-09-27T06:26:57;9.40;99.90
32664;DHT22;19847;48.670;9.242;2022-09-27T06:30:19;9.50;99.90
32664;DHT22;19847;48.670;9.242;2022-09-27T06:33:41;9.50;99.90
32664;DHT22;19847;48.670;9.242;2022-09-27T06:37:04;9.60;99.90
32664;DHT22;19847;48.670;9.242;2022-09-27T06:40:25;9.70;99.90
32664;DHT22;19847;48.670;9.242;2022-09-27T06:43:47;9.70;99.90
32664;DHT22;19847;48.670;9.242;2022-09-27T06:47:08;9.70;99.90
32664;DHT22;19847;48.670;9.242;2022-09-27T06:50:31;9.70;99.90
32664;DHT22;19847;48.670;9.242;2022-09-27T06:53:55;9.80;99.90
32664;DHT22;19847;48.670;9.242;2022-09-27T06:57:16;9.80;99.90
32664;DHT22;19847;48.670;9.242;2022-09-27T07:00:38;9.90;99.90
32664;DHT22;19847;48.670;9.242;2022-09-27T07:03:59;10.00;99.90
32664;DHT22;19847;48.670;9.242;2022-09-27T07:07:21;10.10;99.90
32664;DHT22;19847;48.670;9.242;2022-09-27T07:10:44;10.00;99.90
32664;DHT22;19847;48.670;9.242;2022-09-27T07:14:06;10.10;99.90
32664;DHT22;19847;48.670;9.242;2022-09-27T07:17:27;10.20;99.90
32664;DHT22;19847;48.670;9.242;2022-09-27T07:20:49;10.40;99.90
32664;DHT22;19847;48.670;9.242;2022-09-27T07:24:10;10.60;99.90
32664;DHT22;19847;48.670;9.242;2022-09-27T07:27:33;10.60;99.90
32664;DHT22;19847;48.670;9.242;2022-09-27T07:30:59;10.60;99.90
32664;DHT22;19847;48.670;9.242;2022-09-27T07:34:20;10.80;99.90
32664;DHT22;19847;48.670;9.242;2022-09-27T07:37:42;11.00;99.90
32664;DHT22;19847;48.670;9.242;2022-09-27T07:41:04;11.00;99.90
32664;DHT22;19847;48.670;9.242;2022-09-27T07:44:27;10.90;99.90
32664;DHT22;19847;48.670;9.242;2022-09-27T07:47:49;10.80;99.90
32664;DHT22;19847;48.670;9.242;2022-09-27T07:51:11;10.60;99.90
32664;DHT22;19847;48.670;9.242;2022-09-27T07:54:32;10.60;99.90
32664;DHT22;19847;48.670;9.242;2022-09-27T07:58:00;10.60;99.90
32664;DHT22;19847;48.670;9.242;2022-09-27T08:01:23;10.90;99.90
32664;DHT22;19847;48.670;9.242;2022-09-27T08:04:45;11.30;99.90
32664;DHT22;19847;48.670;9.242;2022-09-27T08:08:06;11.70;99.90
32664;DHT22;19847;48.670;9.242;2022-09-27T08:11:28;12.40;99.90
32664;DHT22;19847;48.670;9.242;2022-09-27T08:14:50;12.50;99.90
32664;DHT22;19847;48.670;9.242;2022-09-27T08:18:13;12.70;99.90
32664;DHT22;19847;48.670;9.242;2022-09-27T08:21:35;12.50;99.90
32664;DHT22;19847;48.670;9.242;2022-09-27T08:24:56;12.50;99.90
32664;DHT22;19847;48.670;9.242;2022-09-27T08:28:18;12.60;99.90
32664;DHT22;19847;48.670;9.242;2022-09-27T08:31:39;13.20;99.90
32664;DHT22;19847;48.670;9.242;2022-09-27T08:35:02;13.90;99.90
32664;DHT22;19847;48.670;9.242;2022-09-27T08:38:24;14.40;99.90
32664;DHT22;19847;48.670;9.242;2022-09-27T08:41:46;14.20;99.90
32664;DHT22;19847;48.670;9.242;2022-09-27T08:45:10;14.50;99.90
32664;DHT22;19847;48.670;9.242;2022-09-27T08:48:34;13.90;99.90
32664;DHT22;19847;48.670;9.242;2022-09-27T08:51:58;13.50;99.90
32664;DHT22;19847;48.670;9.242;2022-09-27T08:55:23;12.90;99.90
32664;DHT22;19847;48.670;9.242;2022-09-27T08:58:47;12.30;99.90
32664;DHT22;19847;48.670;9.242;2022-09-27T09:02:12;11.70;99.90
32664;DHT22;19847;48.670;9.242;2022-09-27T09:05:34;11.30;99.90
32664;DHT22;19847;48.670;9.242;2022-09-27T09:09:01;11.10;99.90
32664;DHT22;19847;48.670;9.242;2022-09-27T09:12:27;11.00;99.90
32664;DHT22;19847;48.670;9.242;2022-09-27T09:15:55;11.20;99.90
32664;DHT22;19847;48.670;9.242;2022-09-27T09:19:22;11.70;99.90
32664;DHT22;19847;48.670;9.242;2022-09-27T09:22:53;12.20;99.90
32664;DHT22;19847;48.670;9.242;2022-09-27T09:26:23;12.40;99.90
32664;DHT22;19847;48.670;9.242;2022-09-27T09:29:55;12.50;99.90
32664;DHT22;19847;48.670;9.242;2022-09-27T09:33:20;12.60;99.90
32664;DHT22;19847;48.670;9.242;2022-09-27T09:36:44;13.90;99.90
32664;DHT22;19847;48.670;9.242;2022-09-27T09:40:13;15.10;99.90
32664;DHT22;19847;48.670;9.242;2022-09-27T09:43:38;15.50;99.90
32664;DHT22;19847;48.670;9.242;2022-09-27T09:47:03;15.20;99.90
32664;DHT22;19847;48.670;9.242;2022-09-27T09:50:33;15.70;99.90
32664;DHT22;19847;48.670;9.242;2022-09-27T09:53:57;15.90;99.90
32664;DHT22;19847;48.670;9.242;2022-09-27T09:57:21;16.30;99.90
32664;DHT22;19847;48.670;9.242;2022-09-27T10:00:44;16.70;99.90
32664;DHT22;19847;48.670;9.242;2022-09-27T10:04:07;16.60;99.90
32664;DHT22;19847;48.670;9.242;2022-09-27T10:07:30;16.70;99.90
32664;DHT22;19847;48.670;9.242;2022-09-27T10:10:52;16.40;99.90
32664;DHT22;19847;48.670;9.242;2022-09-27T10:14:14;16.50;99.90
32664;DHT22;19847;48.670;9.242;2022-09-27T10:17:39;16.00;99.90
32664;DHT22;19847;48.670;9.242;2022-09-27T10:21:03;15.70;99.90
32664;DHT22;19847;48.670;9.242;2022-09-27T10:24:26;15.50;99.90
32664;DHT22;19847;48.670;9.242;2022-09-27T10:27:48;15.40;99.90
32664;DHT22;19847;48.670;9.242;2022-09-27T10:31:11;14.70;99.90
32664;DHT22;19847;48.670;9.242;2022-09-27T10:34:36;14.60;99.90
32664;DHT22;19847;48.670;9.242;2022-09-27T10:38:03;14.20;99.90
32664;DHT22;19847;48.670;9.242;2022-09-27T10:41:33;13.90;99.90
32664;DHT22;19847;48.670;9.242;2022-09-27T10:44:55;13.70;99.90
32664;DHT22;19847;48.670;9.242;2022-09-27T10:48:18;13.40;99.90
32664;DHT22;19847;48.670;9.242;2022-09-27T10:51:41;13.40;99.90
32664;DHT22;19847;48.670;9.242;2022-09-27T10:55:04;13.30;99.90
32664;DHT22;19847;48.670;9.242;2022-09-27T10:58:29;13.60;99.90
32664;DHT22;19847;48.670;9.242;2022-09-27T11:01:51;14.00;99.90
32664;DHT22;19847;48.670;9.242;2022-09-27T11:05:14;14.30;99.90
32664;DHT22;19847;48.670;9.242;2022-09-27T11:08:37;14.20;99.90
32664;DHT22;19847;48.670;9.242;2022-09-27T11:12:07;14.10;99.90
32664;DHT22;19847;48.670;9.242;2022-09-27T11:19:08;13.70;99.90
32664;DHT22;19847;48.670;9.242;2022-09-27T11:22:40;13.80;99.90
32664;DHT22;19847;48.670;9.242;2022-09-27T11:26:11;14.10;99.90
32664;DHT22;19847;48.670;9.242;2022-09-27T11:29:41;14.10;99.90
32664;DHT22;19847;48.670;9.242;2022-09-27T11:33:11;14.40;99.90
32664;DHT22;19847;48.670;9.242;2022-09-27T11:36:41;14.50;99.90
32664;DHT22;19847;48.670;9.242;2022-09-27T11:40:09;14.60;99.90
32664;DHT22;19847;48.670;9.242;2022-09-27T11:43:37;14.00;99.90
32664;DHT22;19847;48.670;9.242;2022-09-27T11:47:06;13.80;99.90
32664;DHT22;19847;48.670;9.242;2022-09-27T11:50:43;13.30;99.90
32664;DHT22;19847;48.670;9.242;2022-09-27T11:54:18;13.30;99.90
32664;DHT22;19847;48.670;9.242;2022-09-27T11:57:45;13.90;99.90
32664;DHT22;19847;48.670;9.242;2022-09-27T12:01:11;15.00;99.90
32664;DHT22;19847;48.670;9.242;2022-09-27T12:04:41;15.10;99.90
32664;DHT22;19847;48.670;9.242;2022-09-27T12:08:07;15.40;99.90
32664;DHT22;19847;48.670;9.242;2022-09-27T12:11:35;15.30;99.90
32664;DHT22;19847;48.670;9.242;2022-09-27T12:14:59;14.90;99.90
32664;DHT22;19847;48.670;9.242;2022-09-27T12:18:38;14.30;99.90
32664;DHT22;19847;48.670;9.242;2022-09-27T12:22:01;13.50;99.90
32664;DHT22;19847;48.670;9.242;2022-09-27T12:25:24;12.90;99.90
32664;DHT22;19847;48.670;9.242;2022-09-27T12:28:47;12.60;99.90
32664;DHT22;19847;48.670;9.242;2022-09-27T12:32:12;12.40;99.90
32664;DHT22;19847;48.670;9.242;2022-09-27T12:35:39;12.10;99.90
32664;DHT22;19847;48.670;9.242;2022-09-27T12:39:04;12.30;99.90
32664;DHT22;19847;48.670;9.242;2022-09-27T12:42:28;12.60;99.90
32664;DHT22;19847;48.670;9.242;2022-09-27T12:45:52;13.00;99.90
32664;DHT22;19847;48.670;9.242;2022-09-27T12:49:16;13.20;99.90
32664;DHT22;19847;48.670;9.242;2022-09-27T12:52:43;13.30;99.90
32664;DHT22;19847;48.670;9.242;2022-09-27T12:56:08;13.00;99.90
32664;DHT22;19847;48.670;9.242;2022-09-27T12:59:48;12.80;99.90
32664;DHT22;19847;48.670;9.242;2022-09-27T13:03:20;12.60;99.90
32664;DHT22;19847;48.670;9.242;2022-09-27T13:06:56;12.40;99.90
32664;DHT22;19847;48.670;9.242;2022-09-27T13:10:28;12.70;99.90
32664;DHT22;19847;48.670;9.242;2022-09-27T13:13:53;13.40;99.90
32664;DHT22;19847;48.670;9.242;2022-09-27T13:17:31;13.30;99.90
32664;DHT22;19847;48.670;9.242;2022-09-27T13:20:53;13.40;99.90
32664;DHT22;19847;48.670;9.242;2022-09-27T13:24:28;13.40;99.90
32664;DHT22;19847;48.670;9.242;2022-09-27T13:27:51;13.40;99.90
32664;DHT22;19847;48.670;9.242;2022-09-27T13:31:12;13.70;99.90
32664;DHT22;19847;48.670;9.242;2022-09-27T13:34:37;13.80;99.90
32664;DHT22;19847;48.670;9.242;2022-09-27T13:37:59;13.80;99.90
32664;DHT22;19847;48.670;9.242;2022-09-27T13:41:21;13.50;99.90
32664;DHT22;19847;48.670;9.242;2022-09-27T13:44:46;13.30;99.90
32664;DHT22;19847;48.670;9.242;2022-09-27T13:48:12;13.10;99.90
32664;DHT22;19847;48.670;9.242;2022-09-27T13:51:38;13.40;99.90
32664;DHT22;19847;48.670;9.242;2022-09-27T13:55:02;13.80;99.90
32664;DHT22;19847;48.670;9.242;2022-09-27T13:58:29;13.70;99.90
32664;DHT22;19847;48.670;9.242;2022-09-27T14:01:55;13.40;99.90
32664;DHT22;19847;48.670;9.242;2022-09-27T14:05:23;13.40;99.90
32664;DHT22;19847;48.670;9.242;2022-09-27T14:08:47;13.60;99.90
32664;DHT22;19847;48.670;9.242;2022-09-27T14:12:10;13.70;99.90
32664;DHT22;19847;48.670;9.242;2022-09-27T14:15:32;13.70;99.90
32664;DHT22;19847;48.670;9.242;2022-09-27T14:18:55;13.30;99.90
32664;DHT22;19847;48.670;9.242;2022-09-27T14:22:18;13.20;99.90
32664;DHT22;19847;48.670;9.242;2022-09-27T14:25:43;13.20;99.90
32664;DHT22;19847;48.670;9.242;2022-09-27T14:29:13;13.10;99.90
32664;DHT22;19847;48.670;9.242;2022-09-27T14:32:44;13.00;99.90
32664;DHT22;19847;48.670;9.242;2022-09-27T14:36:12;13.30;99.90
32664;DHT22;19847;48.670;9.242;2022-09-27T14:39:44;13.50;99.90
32664;DHT22;19847;48.670;9.242;2022-09-27T14:43:09;13.80;99.90
32664;DHT22;19847;48.670;9.242;2022-09-27T14:46:33;13.40;99.90
32664;DHT22;19847;48.670;9.242;2022-09-27T14:49:56;13.30;99.90
32664;DHT22;19847;48.670;9.242;2022-09-27T14:53:20;13.20;99.90
32664;DHT22;19847;48.670;9.242;2022-09-27T14:56:42;13.30;99.90
32664;DHT22;19847;48.670;9.242;2022-09-27T15:00:09;13.20;99.90
32664;DHT22;19847;48.670;9.242;2022-09-27T15:03:34;13.10;99.90
32664;DHT22;19847;48.670;9.242;2022-09-27T15:07:02;12.90;99.90
32664;DHT22;19847;48.670;9.242;2022-09-27T15:10:26;12.70;99.90
32664;DHT22;19847;48.670;9.242;2022-09-27T15:13:49;12.50;99.90
32664;DHT22;19847;48.670;9.242;2022-09-27T15:17:13;12.40;99.90
32664;DHT22;19847;48.670;9.242;2022-09-27T15:20:35;12.20;99.90
32664;DHT22;19847;48.670;9.242;2022-09-27T15:23:57;12.00;99.90
32664;DHT22;19847;48.670;9.242;2022-09-27T15:27:20;12.00;99.90
32664;DHT22;19847;48.670;9.242;2022-09-27T15:30:46;11.90;99.90
32664;DHT22;19847;48.670;9.242;2022-09-27T15:34:14;11.90;99.90
32664;DHT22;19847;48.670;9.242;2022-09-27T15:37:40;11.80;99.90
32664;DHT22;19847;48.670;9.242;2022-09-27T15:41:03;11.70;99.90
32664;DHT22;19847;48.670;9.242;2022-09-27T15:44:35;11.60;99.90
32664;DHT22;19847;48.670;9.242;2022-09-27T15:48:04;11.60;99.90
32664;DHT22;19847;48.670;9.242;2022-09-27T15:51:38;11.60;99.90
32664;DHT22;19847;48.670;9.242;2022-09-27T15:55:00;11.60;99.90
32664;DHT22;19847;48.670;9.242;2022-09-27T15:58:22;11.60;99.90
32664;DHT22;19847;48.670;9.242;2022-09-27T16:01:44;11.60;99.90
32664;DHT22;19847;48.670;9.242;2022-09-27T16:05:06;11.50;99.90
32664;DHT22;19847;48.670;9.242;2022-09-27T16:08:28;11.50;99.90
32664;DHT22;19847;48.670;9.242;2022-09-27T16:11:50;11.50;99.90
32664;DHT22;19847;48.670;9.242;2022-09-27T16:15:11;11.50;99.90
32664;DHT22;19847;48.670;9.242;2022-09-27T16:18:35;11.60;99.90
32664;DHT22;19847;48.670;9.242;2022-09-27T16:21:56;11.60;99.90
32664;DHT22;19847;48.670;9.242;2022-09-27T16:25:18;11.50;99.90
32664;DHT22;19847;48.670;9.242;2022-09-27T16:28:40;11.40;99.90
32664;DHT22;19847;48.670;9.242;2022-09-27T16:32:01;11.30;99.90
32664;DHT22;19847;48.670;9.242;2022-09-27T16:35:25;11.20;99.90
32664;DHT22;19847;48.670;9.242;2022-09-27T16:38:47;11.10;99.90
32664;DHT22;19847;48.670;9.242;2022-09-27T16:42:09;11.00;99.90
32664;DHT22;19847;48.670;9.242;2022-09-27T16:45:30;10.90;99.90
32664;DHT22;19847;48.670;9.242;2022-09-27T16:48:52;10.90;99.90
32664;DHT22;19847;48.670;9.242;2022-09-27T16:52:17;10.80;99.90
32664;DHT22;19847;48.670;9.242;2022-09-27T16:55:38;10.80;99.90
32664;DHT22;19847;48.670;9.242;2022-09-27T16:59:00;10.80;99.90
32664;DHT22;19847;48.670;9.242;2022-09-27T17:02:22;10.70;99.90
32664;DHT22;19847;48.670;9.242;2022-09-27T17:05:46;10.60;99.90
32664;DHT22;19847;48.670;9.242;2022-09-27T17:09:08;10.50;99.90
32664;DHT22;19847;48.670;9.242;2022-09-27T17:12:30;10.40;99.90
32664;DHT22;19847;48.670;9.242;2022-09-27T17:15:52;10.40;99.90
32664;DHT22;19847;48.670;9.242;2022-09-27T17:19:14;10.40;99.90
32664;DHT22;19847;48.670;9.242;2022-09-27T17:22:36;10.40;99.90
32664;DHT22;19847;48.670;9.242;2022-09-27T17:26:02;10.30;99.90
32664;DHT22;19847;48.670;9.242;2022-09-27T17:29:24;10.30;99.90
32664;DHT22;19847;48.670;9.242;2022-09-27T17:32:46;10.30;99.90
32664;DHT22;19847;48.670;9.242;2022-09-27T17:36:07;10.30;99.90
32664;DHT22;19847;48.670;9.242;2022-09-27T17:39:29;10.20;99.90
32664;DHT22;19847;48.670;9.242;2022-09-27T17:42:52;10.20;99.90
32664;DHT22;19847;48.670;9.242;2022-09-27T17:46:14;10.20;99.90
32664;DHT22;19847;48.670;9.242;2022-09-27T17:49:37;10.10;99.90
32664;DHT22;19847;48.670;9.242;2022-09-27T17:52:58;10.00;99.90
32664;DHT22;19847;48.670;9.242;2022-09-27T17:56:20;9.90;99.90
32664;DHT22;19847;48.670;9.242;2022-09-27T17:59:43;9.80;99.90
32664;DHT22;19847;48.670;9.242;2022-09-27T18:03:05;9.70;99.90
32664;DHT22;19847;48.670;9.242;2022-09-27T18:06:26;9.60;99.90
32664;DHT22;19847;48.670;9.242;2022-09-27T18:09:48;9.50;99.90
32664;DHT22;19847;48.670;9.242;2022-09-27T18:13:10;9.40;99.90
32664;DHT22;19847;48.670;9.242;2022-09-27T18:16:34;9.40;99.90
32664;DHT22;19847;48.670;9.242;2022-09-27T18:19:56;9.30;99.90
32664;DHT22;19847;48.670;9.242;2022-09-27T18:23:18;9.30;99.90
32664;DHT22;19847;48.670;9.242;2022-09-27T18:26:39;9.20;99.90
32664;DHT22;19847;48.670;9.242;2022-09-27T18:30:01;9.20;99.90
32664;DHT22;19847;48.670;9.242;2022-09-27T18:33:24;9.10;99.90
32664;DHT22;19847;48.670;9.242;2022-09-27T18:36:45;9.10;99.90
32664;DHT22;19847;48.670;9.242;2022-09-27T18:40:07;9.00;99.90
32664;DHT22;19847;48.670;9.242;2022-09-27T18:43:29;8.90;99.90
32664;DHT22;19847;48.670;9.242;2022-09-27T18:46:54;8.90;99.90
32664;DHT22;19847;48.670;9.242;2022-09-27T18:50:17;8.90;99.90
32664;DHT22;19847;48.670;9.242;2022-09-27T18:53:39;8.80;99.90
32664;DHT22;19847;48.670;9.242;2022-09-27T18:57:01;8.80;99.90
32664;DHT22;19847;48.670;9.242;2022-09-27T19:00:22;8.80;99.90
32664;DHT22;19847;48.670;9.242;2022-09-27T19:03:44;8.80;99.90
32664;DHT22;19847;48.670;9.242;2022-09-27T19:07:07;8.70;99.90
32664;DHT22;19847;48.670;9.242;2022-09-27T19:10:29;8.70;99.90
32664;DHT22;19847;48.670;9.242;2022-09-27T19:13:51;8.70;99.90
32664;DHT22;19847;48.670;9.242;2022-09-27T19:17:13;8.70;99.90
32664;DHT22;19847;48.670;9.242;2022-09-27T19:20:34;8.70;99.90
32664;DHT22;19847;48.670;9.242;2022-09-27T19:23:57;8.60;99.90
32664;DHT22;19847;48.670;9.242;2022-09-27T19:27:19;8.50;99.90
32664;DHT22;19847;48.670;9.242;2022-09-27T19:30:41;8.50;99.90
32664;DHT22;19847;48.670;9.242;2022-09-27T19:34:03;8.30;99.90
32664;DHT22;19847;48.670;9.242;2022-09-27T19:37:25;8.30;99.90
32664;DHT22;19847;48.670;9.242;2022-09-27T19:40:52;8.20;99.90
32664;DHT22;19847;48.670;9.242;2022-09-27T19:44:14;8.10;99.90
32664;DHT22;19847;48.670;9.242;2022-09-27T19:47:36;8.00;99.90
32664;DHT22;19847;48.670;9.242;2022-09-27T19:50:58;7.90;99.90
32664;DHT22;19847;48.670;9.242;2022-09-27T19:54:20;7.90;99.90
32664;DHT22;19847;48.670;9.242;2022-09-27T19:57:43;7.80;99.90
32664;DHT22;19847;48.670;9.242;2022-09-27T20:01:05;7.80;99.90
32664;DHT22;19847;48.670;9.242;2022-09-27T20:04:26;7.70;99.90
32664;DHT22;19847;48.670;9.242;2022-09-27T20:07:48;7.70;99.90
32664;DHT22;19847;48.670;9.242;2022-09-27T20:11:11;7.70;99.90
32664;DHT22;19847;48.670;9.242;2022-09-27T20:14:34;7.70;99.90
32664;DHT22;19847;48.670;9.242;2022-09-27T20:17:56;7.70;99.90
32664;DHT22;19847;48.670;9.242;2022-09-27T20:21:18;7.70;99.90
32664;DHT22;19847;48.670;9.242;2022-09-27T20:24:40;7.80;99.90
32664;DHT22;19847;48.670;9.242;2022-09-27T20:28:02;7.80;99.90
32664;DHT22;19847;48.670;9.242;2022-09-27T20:31:25;7.80;99.90
32664;DHT22;19847;48.670;9.242;2022-09-27T20:34:47;7.80;99.90
32664;DHT22;19847;48.670;9.242;2022-09-27T20:38:09;7.80;99.90
32664;DHT22;19847;48.670;9.242;2022-09-27T20:41:31;7.80;99.90
32664;DHT22;19847;48.670;9.242;2022-09-27T20:44:53;7.80;99.90
32664;DHT22;19847;48.670;9.242;2022-09-27T20:48:16;7.80;99.90
32664;DHT22;19847;48.670;9.242;2022-09-27T20:51:38;7.70;99.90
32664;DHT22;19847;48.670;9.242;2022-09-27T20:55:00;7.70;99.90
32664;DHT22;19847;48.670;9.242;2022-09-27T20:58:22;7.80;99.90
32664;DHT22;19847;48.670;9.242;2022-09-27T21:01:44;7.80;99.90
32664;DHT22;19847;48.670;9.242;2022-09-27T21:05:08;7.90;99.90
32664;DHT22;19847;48.670;9.242;2022-09-27T21:08:30;7.90;99.90
32664;DHT22;19847;48.670;9.242;2022-09-27T21:11:51;7.90;99.90
32664;DHT22;19847;48.670;9.242;2022-09-27T21:15:13;8.00;99.90
32664;DHT22;19847;48.670;9.242;2022-09-27T21:18:35;8.00;99.90
32664;DHT22;19847;48.670;9.242;2022-09-27T21:21:58;8.00;99.90
32664;DHT22;19847;48.670;9.242;2022-09-27T21:25:19;8.00;99.90
32664;DHT22;19847;48.670;9.242;2022-09-27T21:28:42;8.00;99.90
32664;DHT22;19847;48.670;9.242;2022-09-27T21:32:04;8.10;99.90
32664;DHT22;19847;48.670;9.242;2022-09-27T21:35:25;8.10;99.90
32664;DHT22;19847;48.670;9.242;2022-09-27T21:38:49;8.20;99.90